<?xml version="1.0" encoding="UTF-8"?>
<gpx creator="Wikiloc - https://www.wikiloc.com" version="1.1" xmlns="http://www.topografix.com/GPX/1/1" xmlns:xsi="http://www.w3.org/2001/XMLSchema-instance" xsi:schemaLocation="http://www.topografix.com/GPX/1/1 http://www.topografix.com/GPX/1/1/gpx.xsd">
  <metadata>
    <name>Wikiloc - Ruinaulta</name>
    <author>
      <name>Águeda</name>
      <link href="https://www.wikiloc.com/wikiloc/user.do?id=129065">
        <text>Águeda on Wikiloc</text>
      </link>
    </author>
    <link href="https://www.wikiloc.com/hiking-trails/ruinaulta-134370004">
      <text>Ruinaulta on Wikiloc</text>
    </link>
    <time>2023-05-10T18:04:51Z</time>
  </metadata>
  <wpt lat="46.825451" lon="9.289967">
    <ele>1101.7</ele>
    <time>2023-05-10T18:04:51Z</time>
    <name>Flims Waldhaus</name>
    <cmt></cmt>
    <desc></desc>
  </wpt>
  <wpt lat="46.820744" lon="9.295885">
    <ele>997.0</ele>
    <time>2023-05-10T18:04:51Z</time>
    <name>Caumasee</name>
    <cmt></cmt>
    <desc></desc>
  </wpt>
  <wpt lat="46.812556" lon="9.319813">
    <ele>944.6</ele>
    <time>2023-05-10T18:04:51Z</time>
    <name>Mirador Il Spir</name>
    <cmt></cmt>
    <desc></desc>
  </wpt>
  <trk>
    <name>Ruinaulta</name>
    <cmt></cmt>
    <desc></desc>
    <trkseg>
      <trkpt lat="46.825249" lon="9.290232">
        <ele>1098.118</ele>
        <time>2023-05-10T18:05:39Z</time>
      </trkpt>
      <trkpt lat="46.825183" lon="9.290251">
        <ele>1097.098</ele>
        <time>2023-05-10T18:06:19Z</time>
      </trkpt>
      <trkpt lat="46.825111" lon="9.290428">
        <ele>1096.117</ele>
        <time>2023-05-10T18:06:59Z</time>
      </trkpt>
      <trkpt lat="46.825039" lon="9.290594">
        <ele>1095.509</ele>
        <time>2023-05-10T18:07:39Z</time>
      </trkpt>
      <trkpt lat="46.824967" lon="9.290779">
        <ele>1094.622</ele>
        <time>2023-05-10T18:08:19Z</time>
      </trkpt>
      <trkpt lat="46.824954" lon="9.290897">
        <ele>1094.754</ele>
        <time>2023-05-10T18:08:59Z</time>
      </trkpt>
      <trkpt lat="46.824915" lon="9.291154">
        <ele>1094.755</ele>
        <time>2023-05-10T18:09:39Z</time>
      </trkpt>
      <trkpt lat="46.824855" lon="9.291321">
        <ele>1093.174</ele>
        <time>2023-05-10T18:10:19Z</time>
      </trkpt>
      <trkpt lat="46.824762" lon="9.291504">
        <ele>1090.998</ele>
        <time>2023-05-10T18:10:59Z</time>
      </trkpt>
      <trkpt lat="46.824690" lon="9.291631">
        <ele>1089.341</ele>
        <time>2023-05-10T18:11:39Z</time>
      </trkpt>
      <trkpt lat="46.824556" lon="9.291706">
        <ele>1086.881</ele>
        <time>2023-05-10T18:12:19Z</time>
      </trkpt>
      <trkpt lat="46.824425" lon="9.291730">
        <ele>1084.121</ele>
        <time>2023-05-10T18:12:59Z</time>
      </trkpt>
      <trkpt lat="46.824369" lon="9.291907">
        <ele>1084.265</ele>
        <time>2023-05-10T18:13:39Z</time>
      </trkpt>
      <trkpt lat="46.824318" lon="9.292204">
        <ele>1085.799</ele>
        <time>2023-05-10T18:14:19Z</time>
      </trkpt>
      <trkpt lat="46.824200" lon="9.292466">
        <ele>1083.607</ele>
        <time>2023-05-10T18:14:59Z</time>
      </trkpt>
      <trkpt lat="46.824062" lon="9.292656">
        <ele>1082.227</ele>
        <time>2023-05-10T18:15:39Z</time>
      </trkpt>
      <trkpt lat="46.823952" lon="9.292913">
        <ele>1082.209</ele>
        <time>2023-05-10T18:16:19Z</time>
      </trkpt>
      <trkpt lat="46.823961" lon="9.293051">
        <ele>1083.540</ele>
        <time>2023-05-10T18:16:59Z</time>
      </trkpt>
      <trkpt lat="46.823836" lon="9.293092">
        <ele>1081.332</ele>
        <time>2023-05-10T18:17:39Z</time>
      </trkpt>
      <trkpt lat="46.823760" lon="9.293093">
        <ele>1080.053</ele>
        <time>2023-05-10T18:18:19Z</time>
      </trkpt>
      <trkpt lat="46.823621" lon="9.293148">
        <ele>1078.252</ele>
        <time>2023-05-10T18:18:59Z</time>
      </trkpt>
      <trkpt lat="46.823534" lon="9.293189">
        <ele>1075.476</ele>
        <time>2023-05-10T18:19:39Z</time>
      </trkpt>
      <trkpt lat="46.823383" lon="9.293291">
        <ele>1070.559</ele>
        <time>2023-05-10T18:20:19Z</time>
      </trkpt>
      <trkpt lat="46.823293" lon="9.293350">
        <ele>1068.019</ele>
        <time>2023-05-10T18:20:59Z</time>
      </trkpt>
      <trkpt lat="46.823131" lon="9.293473">
        <ele>1064.349</ele>
        <time>2023-05-10T18:21:39Z</time>
      </trkpt>
      <trkpt lat="46.823046" lon="9.293558">
        <ele>1062.293</ele>
        <time>2023-05-10T18:22:19Z</time>
      </trkpt>
      <trkpt lat="46.822933" lon="9.293616">
        <ele>1057.756</ele>
        <time>2023-05-10T18:22:59Z</time>
      </trkpt>
      <trkpt lat="46.822854" lon="9.293660">
        <ele>1054.659</ele>
        <time>2023-05-10T18:23:39Z</time>
      </trkpt>
      <trkpt lat="46.822812" lon="9.293800">
        <ele>1053.814</ele>
        <time>2023-05-10T18:24:19Z</time>
      </trkpt>
      <trkpt lat="46.822760" lon="9.293987">
        <ele>1051.409</ele>
        <time>2023-05-10T18:24:59Z</time>
      </trkpt>
      <trkpt lat="46.822706" lon="9.294204">
        <ele>1047.246</ele>
        <time>2023-05-10T18:25:39Z</time>
      </trkpt>
      <trkpt lat="46.822643" lon="9.294383">
        <ele>1043.768</ele>
        <time>2023-05-10T18:26:19Z</time>
      </trkpt>
      <trkpt lat="46.822562" lon="9.294609">
        <ele>1039.629</ele>
        <time>2023-05-10T18:26:59Z</time>
      </trkpt>
      <trkpt lat="46.822483" lon="9.294785">
        <ele>1035.838</ele>
        <time>2023-05-10T18:27:39Z</time>
      </trkpt>
      <trkpt lat="46.822428" lon="9.294979">
        <ele>1034.032</ele>
        <time>2023-05-10T18:28:19Z</time>
      </trkpt>
      <trkpt lat="46.822377" lon="9.295129">
        <ele>1030.455</ele>
        <time>2023-05-10T18:28:59Z</time>
      </trkpt>
      <trkpt lat="46.822335" lon="9.295288">
        <ele>1027.815</ele>
        <time>2023-05-10T18:29:39Z</time>
      </trkpt>
      <trkpt lat="46.822285" lon="9.295451">
        <ele>1024.175</ele>
        <time>2023-05-10T18:30:19Z</time>
      </trkpt>
      <trkpt lat="46.822230" lon="9.295575">
        <ele>1020.629</ele>
        <time>2023-05-10T18:30:59Z</time>
      </trkpt>
      <trkpt lat="46.822030" lon="9.295759">
        <ele>1013.443</ele>
        <time>2023-05-10T18:31:39Z</time>
      </trkpt>
      <trkpt lat="46.821914" lon="9.295858">
        <ele>1010.764</ele>
        <time>2023-05-10T18:32:19Z</time>
      </trkpt>
      <trkpt lat="46.821827" lon="9.295938">
        <ele>1009.810</ele>
        <time>2023-05-10T18:32:59Z</time>
      </trkpt>
      <trkpt lat="46.821739" lon="9.295925">
        <ele>1007.109</ele>
        <time>2023-05-10T18:33:39Z</time>
      </trkpt>
      <trkpt lat="46.821655" lon="9.296143">
        <ele>1006.565</ele>
        <time>2023-05-10T18:34:19Z</time>
      </trkpt>
      <trkpt lat="46.821624" lon="9.296385">
        <ele>1004.687</ele>
        <time>2023-05-10T18:34:59Z</time>
      </trkpt>
      <trkpt lat="46.821556" lon="9.296539">
        <ele>1004.788</ele>
        <time>2023-05-10T18:35:39Z</time>
      </trkpt>
      <trkpt lat="46.821490" lon="9.296701">
        <ele>1005.387</ele>
        <time>2023-05-10T18:36:19Z</time>
      </trkpt>
      <trkpt lat="46.821386" lon="9.296804">
        <ele>1002.931</ele>
        <time>2023-05-10T18:36:59Z</time>
      </trkpt>
      <trkpt lat="46.821354" lon="9.296847">
        <ele>1002.234</ele>
        <time>2023-05-10T18:37:39Z</time>
      </trkpt>
      <trkpt lat="46.821306" lon="9.297073">
        <ele>1000.924</ele>
        <time>2023-05-10T18:38:19Z</time>
      </trkpt>
      <trkpt lat="46.821328" lon="9.297253">
        <ele>1001.144</ele>
        <time>2023-05-10T18:38:59Z</time>
      </trkpt>
      <trkpt lat="46.821312" lon="9.297428">
        <ele>1001.748</ele>
        <time>2023-05-10T18:39:39Z</time>
      </trkpt>
      <trkpt lat="46.821296" lon="9.297525">
        <ele>1002.367</ele>
        <time>2023-05-10T18:40:19Z</time>
      </trkpt>
      <trkpt lat="46.821215" lon="9.297627">
        <ele>1002.881</ele>
        <time>2023-05-10T18:40:59Z</time>
      </trkpt>
      <trkpt lat="46.821025" lon="9.297716">
        <ele>1002.019</ele>
        <time>2023-05-10T18:41:39Z</time>
      </trkpt>
      <trkpt lat="46.820899" lon="9.297826">
        <ele>1003.409</ele>
        <time>2023-05-10T18:42:19Z</time>
      </trkpt>
      <trkpt lat="46.820724" lon="9.298007">
        <ele>1005.617</ele>
        <time>2023-05-10T18:42:59Z</time>
      </trkpt>
      <trkpt lat="46.820570" lon="9.298077">
        <ele>1006.479</ele>
        <time>2023-05-10T18:43:39Z</time>
      </trkpt>
      <trkpt lat="46.820411" lon="9.298143">
        <ele>1005.870</ele>
        <time>2023-05-10T18:44:19Z</time>
      </trkpt>
      <trkpt lat="46.820223" lon="9.298274">
        <ele>1005.449</ele>
        <time>2023-05-10T18:44:59Z</time>
      </trkpt>
      <trkpt lat="46.820047" lon="9.298432">
        <ele>1005.293</ele>
        <time>2023-05-10T18:45:39Z</time>
      </trkpt>
      <trkpt lat="46.819880" lon="9.298587">
        <ele>1004.676</ele>
        <time>2023-05-10T18:46:19Z</time>
      </trkpt>
      <trkpt lat="46.819780" lon="9.298708">
        <ele>1004.736</ele>
        <time>2023-05-10T18:46:59Z</time>
      </trkpt>
      <trkpt lat="46.819540" lon="9.299000">
        <ele>1006.046</ele>
        <time>2023-05-10T18:47:39Z</time>
      </trkpt>
      <trkpt lat="46.819382" lon="9.299165">
        <ele>1006.390</ele>
        <time>2023-05-10T18:48:19Z</time>
      </trkpt>
      <trkpt lat="46.819287" lon="9.299316">
        <ele>1007.825</ele>
        <time>2023-05-10T18:48:59Z</time>
      </trkpt>
      <trkpt lat="46.819166" lon="9.299482">
        <ele>1009.726</ele>
        <time>2023-05-10T18:49:39Z</time>
      </trkpt>
      <trkpt lat="46.819005" lon="9.299563">
        <ele>1010.208</ele>
        <time>2023-05-10T18:50:19Z</time>
      </trkpt>
      <trkpt lat="46.818837" lon="9.299690">
        <ele>1013.209</ele>
        <time>2023-05-10T18:50:59Z</time>
      </trkpt>
      <trkpt lat="46.818704" lon="9.299945">
        <ele>1019.323</ele>
        <time>2023-05-10T18:51:39Z</time>
      </trkpt>
      <trkpt lat="46.818767" lon="9.299984">
        <ele>1019.185</ele>
        <time>2023-05-10T18:52:19Z</time>
      </trkpt>
      <trkpt lat="46.818902" lon="9.299931">
        <ele>1016.876</ele>
        <time>2023-05-10T18:52:59Z</time>
      </trkpt>
      <trkpt lat="46.819023" lon="9.299916">
        <ele>1017.015</ele>
        <time>2023-05-10T18:53:39Z</time>
      </trkpt>
      <trkpt lat="46.819052" lon="9.299990">
        <ele>1018.489</ele>
        <time>2023-05-10T18:54:19Z</time>
      </trkpt>
      <trkpt lat="46.818941" lon="9.300083">
        <ele>1020.662</ele>
        <time>2023-05-10T18:54:59Z</time>
      </trkpt>
      <trkpt lat="46.818666" lon="9.300328">
        <ele>1027.322</ele>
        <time>2023-05-10T18:55:39Z</time>
      </trkpt>
      <trkpt lat="46.818486" lon="9.300552">
        <ele>1032.572</ele>
        <time>2023-05-10T18:56:19Z</time>
      </trkpt>
      <trkpt lat="46.818307" lon="9.300856">
        <ele>1031.516</ele>
        <time>2023-05-10T18:56:59Z</time>
      </trkpt>
      <trkpt lat="46.818212" lon="9.301130">
        <ele>1034.883</ele>
        <time>2023-05-10T18:57:39Z</time>
      </trkpt>
      <trkpt lat="46.818179" lon="9.301417">
        <ele>1037.525</ele>
        <time>2023-05-10T18:58:19Z</time>
      </trkpt>
      <trkpt lat="46.818142" lon="9.301721">
        <ele>1038.717</ele>
        <time>2023-05-10T18:58:59Z</time>
      </trkpt>
      <trkpt lat="46.818054" lon="9.301992">
        <ele>1038.309</ele>
        <time>2023-05-10T18:59:39Z</time>
      </trkpt>
      <trkpt lat="46.817937" lon="9.302202">
        <ele>1039.569</ele>
        <time>2023-05-10T19:00:19Z</time>
      </trkpt>
      <trkpt lat="46.817733" lon="9.302431">
        <ele>1039.891</ele>
        <time>2023-05-10T19:00:59Z</time>
      </trkpt>
      <trkpt lat="46.817563" lon="9.302620">
        <ele>1040.552</ele>
        <time>2023-05-10T19:01:39Z</time>
      </trkpt>
      <trkpt lat="46.817452" lon="9.302966">
        <ele>1041.061</ele>
        <time>2023-05-10T19:02:19Z</time>
      </trkpt>
      <trkpt lat="46.817366" lon="9.303267">
        <ele>1040.665</ele>
        <time>2023-05-10T19:02:59Z</time>
      </trkpt>
      <trkpt lat="46.817318" lon="9.303513">
        <ele>1039.328</ele>
        <time>2023-05-10T19:03:39Z</time>
      </trkpt>
      <trkpt lat="46.817319" lon="9.303915">
        <ele>1038.128</ele>
        <time>2023-05-10T19:04:19Z</time>
      </trkpt>
      <trkpt lat="46.817259" lon="9.304245">
        <ele>1034.828</ele>
        <time>2023-05-10T19:04:59Z</time>
      </trkpt>
      <trkpt lat="46.817098" lon="9.304728">
        <ele>1032.712</ele>
        <time>2023-05-10T19:05:39Z</time>
      </trkpt>
      <trkpt lat="46.816959" lon="9.304992">
        <ele>1032.863</ele>
        <time>2023-05-10T19:06:19Z</time>
      </trkpt>
      <trkpt lat="46.816846" lon="9.305214">
        <ele>1032.044</ele>
        <time>2023-05-10T19:06:59Z</time>
      </trkpt>
      <trkpt lat="46.816696" lon="9.305287">
        <ele>1031.718</ele>
        <time>2023-05-10T19:07:39Z</time>
      </trkpt>
      <trkpt lat="46.816381" lon="9.305269">
        <ele>1028.009</ele>
        <time>2023-05-10T19:08:19Z</time>
      </trkpt>
      <trkpt lat="46.816223" lon="9.305207">
        <ele>1026.437</ele>
        <time>2023-05-10T19:08:59Z</time>
      </trkpt>
      <trkpt lat="46.816044" lon="9.305055">
        <ele>1025.649</ele>
        <time>2023-05-10T19:09:39Z</time>
      </trkpt>
      <trkpt lat="46.815947" lon="9.305023">
        <ele>1025.850</ele>
        <time>2023-05-10T19:10:19Z</time>
      </trkpt>
      <trkpt lat="46.815828" lon="9.305039">
        <ele>1025.729</ele>
        <time>2023-05-10T19:10:59Z</time>
      </trkpt>
      <trkpt lat="46.815670" lon="9.305038">
        <ele>1027.913</ele>
        <time>2023-05-10T19:11:39Z</time>
      </trkpt>
      <trkpt lat="46.815487" lon="9.305296">
        <ele>1027.146</ele>
        <time>2023-05-10T19:12:19Z</time>
      </trkpt>
      <trkpt lat="46.815295" lon="9.305509">
        <ele>1025.936</ele>
        <time>2023-05-10T19:12:59Z</time>
      </trkpt>
      <trkpt lat="46.815133" lon="9.305676">
        <ele>1025.486</ele>
        <time>2023-05-10T19:13:39Z</time>
      </trkpt>
      <trkpt lat="46.815024" lon="9.305782">
        <ele>1024.380</ele>
        <time>2023-05-10T19:14:19Z</time>
      </trkpt>
      <trkpt lat="46.814888" lon="9.305848">
        <ele>1024.722</ele>
        <time>2023-05-10T19:14:59Z</time>
      </trkpt>
      <trkpt lat="46.814754" lon="9.305884">
        <ele>1026.062</ele>
        <time>2023-05-10T19:15:39Z</time>
      </trkpt>
      <trkpt lat="46.814688" lon="9.305927">
        <ele>1026.808</ele>
        <time>2023-05-10T19:16:19Z</time>
      </trkpt>
      <trkpt lat="46.814633" lon="9.306261">
        <ele>1021.709</ele>
        <time>2023-05-10T19:16:59Z</time>
      </trkpt>
      <trkpt lat="46.814514" lon="9.306677">
        <ele>1018.153</ele>
        <time>2023-05-10T19:17:39Z</time>
      </trkpt>
      <trkpt lat="46.814366" lon="9.307004">
        <ele>1018.395</ele>
        <time>2023-05-10T19:18:19Z</time>
      </trkpt>
      <trkpt lat="46.814263" lon="9.307270">
        <ele>1016.376</ele>
        <time>2023-05-10T19:18:59Z</time>
      </trkpt>
      <trkpt lat="46.814121" lon="9.307531">
        <ele>1016.875</ele>
        <time>2023-05-10T19:19:39Z</time>
      </trkpt>
      <trkpt lat="46.814031" lon="9.307793">
        <ele>1017.719</ele>
        <time>2023-05-10T19:20:19Z</time>
      </trkpt>
      <trkpt lat="46.813958" lon="9.308112">
        <ele>1017.052</ele>
        <time>2023-05-10T19:20:59Z</time>
      </trkpt>
      <trkpt lat="46.813882" lon="9.308434">
        <ele>1014.542</ele>
        <time>2023-05-10T19:21:39Z</time>
      </trkpt>
      <trkpt lat="46.813826" lon="9.308683">
        <ele>1012.542</ele>
        <time>2023-05-10T19:22:19Z</time>
      </trkpt>
      <trkpt lat="46.813731" lon="9.308895">
        <ele>1012.136</ele>
        <time>2023-05-10T19:22:59Z</time>
      </trkpt>
      <trkpt lat="46.813588" lon="9.309148">
        <ele>1009.865</ele>
        <time>2023-05-10T19:23:39Z</time>
      </trkpt>
      <trkpt lat="46.813469" lon="9.309424">
        <ele>1008.368</ele>
        <time>2023-05-10T19:24:19Z</time>
      </trkpt>
      <trkpt lat="46.813359" lon="9.309685">
        <ele>1008.614</ele>
        <time>2023-05-10T19:24:59Z</time>
      </trkpt>
      <trkpt lat="46.813273" lon="9.309999">
        <ele>1003.909</ele>
        <time>2023-05-10T19:25:39Z</time>
      </trkpt>
      <trkpt lat="46.813264" lon="9.310428">
        <ele>1001.597</ele>
        <time>2023-05-10T19:26:19Z</time>
      </trkpt>
      <trkpt lat="46.813240" lon="9.310727">
        <ele>998.899</ele>
        <time>2023-05-10T19:26:59Z</time>
      </trkpt>
      <trkpt lat="46.813182" lon="9.311078">
        <ele>994.230</ele>
        <time>2023-05-10T19:27:39Z</time>
      </trkpt>
      <trkpt lat="46.813147" lon="9.311458">
        <ele>992.579</ele>
        <time>2023-05-10T19:28:19Z</time>
      </trkpt>
      <trkpt lat="46.813202" lon="9.311789">
        <ele>993.223</ele>
        <time>2023-05-10T19:28:59Z</time>
      </trkpt>
      <trkpt lat="46.813140" lon="9.312183">
        <ele>989.086</ele>
        <time>2023-05-10T19:29:39Z</time>
      </trkpt>
      <trkpt lat="46.813082" lon="9.312492">
        <ele>990.766</ele>
        <time>2023-05-10T19:30:19Z</time>
      </trkpt>
      <trkpt lat="46.812983" lon="9.312757">
        <ele>988.056</ele>
        <time>2023-05-10T19:30:59Z</time>
      </trkpt>
      <trkpt lat="46.812849" lon="9.313134">
        <ele>989.670</ele>
        <time>2023-05-10T19:31:39Z</time>
      </trkpt>
      <trkpt lat="46.812737" lon="9.313364">
        <ele>987.592</ele>
        <time>2023-05-10T19:32:19Z</time>
      </trkpt>
      <trkpt lat="46.812736" lon="9.313648">
        <ele>981.273</ele>
        <time>2023-05-10T19:32:59Z</time>
      </trkpt>
      <trkpt lat="46.812785" lon="9.313931">
        <ele>979.020</ele>
        <time>2023-05-10T19:33:39Z</time>
      </trkpt>
      <trkpt lat="46.812921" lon="9.314171">
        <ele>974.109</ele>
        <time>2023-05-10T19:34:19Z</time>
      </trkpt>
      <trkpt lat="46.813015" lon="9.314360">
        <ele>977.160</ele>
        <time>2023-05-10T19:34:59Z</time>
      </trkpt>
      <trkpt lat="46.813025" lon="9.314472">
        <ele>976.742</ele>
        <time>2023-05-10T19:35:39Z</time>
      </trkpt>
      <trkpt lat="46.812966" lon="9.314714">
        <ele>969.423</ele>
        <time>2023-05-10T19:36:19Z</time>
      </trkpt>
      <trkpt lat="46.812944" lon="9.314966">
        <ele>967.032</ele>
        <time>2023-05-10T19:36:59Z</time>
      </trkpt>
      <trkpt lat="46.812999" lon="9.315252">
        <ele>970.036</ele>
        <time>2023-05-10T19:37:39Z</time>
      </trkpt>
      <trkpt lat="46.813115" lon="9.315648">
        <ele>968.819</ele>
        <time>2023-05-10T19:38:19Z</time>
      </trkpt>
      <trkpt lat="46.813222" lon="9.315954">
        <ele>968.769</ele>
        <time>2023-05-10T19:38:59Z</time>
      </trkpt>
      <trkpt lat="46.813230" lon="9.316174">
        <ele>968.619</ele>
        <time>2023-05-10T19:39:39Z</time>
      </trkpt>
      <trkpt lat="46.813193" lon="9.316501">
        <ele>967.333</ele>
        <time>2023-05-10T19:40:19Z</time>
      </trkpt>
      <trkpt lat="46.813203" lon="9.316784">
        <ele>966.231</ele>
        <time>2023-05-10T19:40:59Z</time>
      </trkpt>
      <trkpt lat="46.813278" lon="9.317075">
        <ele>965.561</ele>
        <time>2023-05-10T19:41:39Z</time>
      </trkpt>
      <trkpt lat="46.813249" lon="9.317408">
        <ele>961.607</ele>
        <time>2023-05-10T19:42:19Z</time>
      </trkpt>
      <trkpt lat="46.813234" lon="9.317771">
        <ele>955.509</ele>
        <time>2023-05-10T19:42:59Z</time>
      </trkpt>
      <trkpt lat="46.813203" lon="9.318152">
        <ele>953.354</ele>
        <time>2023-05-10T19:43:39Z</time>
      </trkpt>
      <trkpt lat="46.813148" lon="9.318601">
        <ele>956.926</ele>
        <time>2023-05-10T19:44:19Z</time>
      </trkpt>
      <trkpt lat="46.813108" lon="9.318939">
        <ele>960.617</ele>
        <time>2023-05-10T19:44:59Z</time>
      </trkpt>
      <trkpt lat="46.813049" lon="9.319229">
        <ele>960.516</ele>
        <time>2023-05-10T19:45:39Z</time>
      </trkpt>
      <trkpt lat="46.812939" lon="9.319518">
        <ele>957.660</ele>
        <time>2023-05-10T19:46:19Z</time>
      </trkpt>
      <trkpt lat="46.812851" lon="9.319718">
        <ele>960.483</ele>
        <time>2023-05-10T19:46:59Z</time>
      </trkpt>
      <trkpt lat="46.812706" lon="9.319831">
        <ele>955.393</ele>
        <time>2023-05-10T19:47:39Z</time>
      </trkpt>
      <trkpt lat="46.812807" lon="9.319822">
        <ele>960.673</ele>
        <time>2023-05-10T19:48:19Z</time>
      </trkpt>
      <trkpt lat="46.812906" lon="9.319589">
        <ele>958.137</ele>
        <time>2023-05-10T19:48:59Z</time>
      </trkpt>
      <trkpt lat="46.813001" lon="9.319321">
        <ele>957.745</ele>
        <time>2023-05-10T19:49:39Z</time>
      </trkpt>
      <trkpt lat="46.813077" lon="9.319080">
        <ele>960.847</ele>
        <time>2023-05-10T19:50:19Z</time>
      </trkpt>
      <trkpt lat="46.813104" lon="9.318729">
        <ele>957.911</ele>
        <time>2023-05-10T19:50:59Z</time>
      </trkpt>
      <trkpt lat="46.813174" lon="9.318299">
        <ele>954.309</ele>
        <time>2023-05-10T19:51:39Z</time>
      </trkpt>
      <trkpt lat="46.813254" lon="9.317938">
        <ele>955.435</ele>
        <time>2023-05-10T19:52:19Z</time>
      </trkpt>
      <trkpt lat="46.813300" lon="9.316961">
        <ele>967.047</ele>
        <time>2023-05-10T19:52:59Z</time>
      </trkpt>
      <trkpt lat="46.813181" lon="9.316647">
        <ele>966.778</ele>
        <time>2023-05-10T19:53:39Z</time>
      </trkpt>
      <trkpt lat="46.813228" lon="9.316338">
        <ele>968.487</ele>
        <time>2023-05-10T19:54:19Z</time>
      </trkpt>
      <trkpt lat="46.813238" lon="9.316026">
        <ele>969.141</ele>
        <time>2023-05-10T19:54:59Z</time>
      </trkpt>
      <trkpt lat="46.813213" lon="9.315784">
        <ele>969.284</ele>
        <time>2023-05-10T19:55:39Z</time>
      </trkpt>
      <trkpt lat="46.813048" lon="9.315468">
        <ele>970.474</ele>
        <time>2023-05-10T19:56:19Z</time>
      </trkpt>
      <trkpt lat="46.812964" lon="9.315128">
        <ele>968.274</ele>
        <time>2023-05-10T19:56:59Z</time>
      </trkpt>
      <trkpt lat="46.812968" lon="9.314860">
        <ele>969.158</ele>
        <time>2023-05-10T19:57:39Z</time>
      </trkpt>
      <trkpt lat="46.813008" lon="9.314600">
        <ele>974.191</ele>
        <time>2023-05-10T19:58:19Z</time>
      </trkpt>
      <trkpt lat="46.813002" lon="9.314255">
        <ele>977.481</ele>
        <time>2023-05-10T19:58:59Z</time>
      </trkpt>
      <trkpt lat="46.812842" lon="9.314077">
        <ele>973.919</ele>
        <time>2023-05-10T19:59:39Z</time>
      </trkpt>
      <trkpt lat="46.812760" lon="9.313795">
        <ele>980.809</ele>
        <time>2023-05-10T20:00:19Z</time>
      </trkpt>
      <trkpt lat="46.812722" lon="9.313478">
        <ele>984.050</ele>
        <time>2023-05-10T20:00:59Z</time>
      </trkpt>
      <trkpt lat="46.812740" lon="9.313225">
        <ele>988.532</ele>
        <time>2023-05-10T20:01:39Z</time>
      </trkpt>
      <trkpt lat="46.812933" lon="9.312879">
        <ele>987.853</ele>
        <time>2023-05-10T20:02:19Z</time>
      </trkpt>
      <trkpt lat="46.813017" lon="9.312604">
        <ele>988.722</ele>
        <time>2023-05-10T20:02:59Z</time>
      </trkpt>
      <trkpt lat="46.813102" lon="9.312276">
        <ele>988.546</ele>
        <time>2023-05-10T20:03:39Z</time>
      </trkpt>
      <trkpt lat="46.813194" lon="9.311936">
        <ele>992.099</ele>
        <time>2023-05-10T20:04:19Z</time>
      </trkpt>
      <trkpt lat="46.813194" lon="9.311605">
        <ele>994.019</ele>
        <time>2023-05-10T20:04:59Z</time>
      </trkpt>
      <trkpt lat="46.813160" lon="9.311323">
        <ele>993.599</ele>
        <time>2023-05-10T20:05:39Z</time>
      </trkpt>
      <trkpt lat="46.813246" lon="9.310934">
        <ele>998.653</ele>
        <time>2023-05-10T20:06:19Z</time>
      </trkpt>
      <trkpt lat="46.813274" lon="9.310572">
        <ele>1001.978</ele>
        <time>2023-05-10T20:06:59Z</time>
      </trkpt>
      <trkpt lat="46.813267" lon="9.310229">
        <ele>1002.233</ele>
        <time>2023-05-10T20:07:39Z</time>
      </trkpt>
      <trkpt lat="46.813430" lon="9.309954">
        <ele>1005.426</ele>
        <time>2023-05-10T20:08:19Z</time>
      </trkpt>
      <trkpt lat="46.813673" lon="9.309407">
        <ele>1004.409</ele>
        <time>2023-05-10T20:08:59Z</time>
      </trkpt>
      <trkpt lat="46.814072" lon="9.308983">
        <ele>1001.548</ele>
        <time>2023-05-10T20:09:39Z</time>
      </trkpt>
      <trkpt lat="46.814223" lon="9.308185">
        <ele>1006.130</ele>
        <time>2023-05-10T20:10:19Z</time>
      </trkpt>
      <trkpt lat="46.814453" lon="9.307452">
        <ele>1010.361</ele>
        <time>2023-05-10T20:10:59Z</time>
      </trkpt>
      <trkpt lat="46.814795" lon="9.307206">
        <ele>1005.360</ele>
        <time>2023-05-10T20:11:39Z</time>
      </trkpt>
      <trkpt lat="46.814726" lon="9.306925">
        <ele>1010.154</ele>
        <time>2023-05-10T20:12:19Z</time>
      </trkpt>
      <trkpt lat="46.814866" lon="9.306548">
        <ele>1012.187</ele>
        <time>2023-05-10T20:12:59Z</time>
      </trkpt>
      <trkpt lat="46.814900" lon="9.306208">
        <ele>1016.677</ele>
        <time>2023-05-10T20:13:39Z</time>
      </trkpt>
      <trkpt lat="46.815155" lon="9.306081">
        <ele>1015.417</ele>
        <time>2023-05-10T20:14:19Z</time>
      </trkpt>
      <trkpt lat="46.815679" lon="9.305731">
        <ele>1017.661</ele>
        <time>2023-05-10T20:14:59Z</time>
      </trkpt>
      <trkpt lat="46.815770" lon="9.305755">
        <ele>1017.628</ele>
        <time>2023-05-10T20:15:39Z</time>
      </trkpt>
      <trkpt lat="46.816084" lon="9.305555">
        <ele>1020.089</ele>
        <time>2023-05-10T20:16:19Z</time>
      </trkpt>
      <trkpt lat="46.816251" lon="9.305701">
        <ele>1019.217</ele>
        <time>2023-05-10T20:16:59Z</time>
      </trkpt>
      <trkpt lat="46.816497" lon="9.305690">
        <ele>1022.309</ele>
        <time>2023-05-10T20:17:39Z</time>
      </trkpt>
      <trkpt lat="46.816608" lon="9.305835">
        <ele>1021.933</ele>
        <time>2023-05-10T20:18:19Z</time>
      </trkpt>
      <trkpt lat="46.816726" lon="9.305904">
        <ele>1021.555</ele>
        <time>2023-05-10T20:18:59Z</time>
      </trkpt>
      <trkpt lat="46.816933" lon="9.305740">
        <ele>1023.156</ele>
        <time>2023-05-10T20:19:39Z</time>
      </trkpt>
      <trkpt lat="46.817148" lon="9.305835">
        <ele>1022.575</ele>
        <time>2023-05-10T20:20:19Z</time>
      </trkpt>
      <trkpt lat="46.817259" lon="9.305978">
        <ele>1022.859</ele>
        <time>2023-05-10T20:20:59Z</time>
      </trkpt>
      <trkpt lat="46.817388" lon="9.306158">
        <ele>1024.992</ele>
        <time>2023-05-10T20:21:39Z</time>
      </trkpt>
      <trkpt lat="46.817493" lon="9.306490">
        <ele>1025.822</ele>
        <time>2023-05-10T20:22:19Z</time>
      </trkpt>
      <trkpt lat="46.817633" lon="9.306779">
        <ele>1029.952</ele>
        <time>2023-05-10T20:22:59Z</time>
      </trkpt>
      <trkpt lat="46.817740" lon="9.307326">
        <ele>1028.856</ele>
        <time>2023-05-10T20:23:39Z</time>
      </trkpt>
      <trkpt lat="46.818063" lon="9.307801">
        <ele>1030.669</ele>
        <time>2023-05-10T20:24:19Z</time>
      </trkpt>
      <trkpt lat="46.818202" lon="9.307747">
        <ele>1030.704</ele>
        <time>2023-05-10T20:24:59Z</time>
      </trkpt>
      <trkpt lat="46.818290" lon="9.307255">
        <ele>1035.124</ele>
        <time>2023-05-10T20:25:39Z</time>
      </trkpt>
      <trkpt lat="46.818478" lon="9.306860">
        <ele>1036.009</ele>
        <time>2023-05-10T20:26:19Z</time>
      </trkpt>
      <trkpt lat="46.818658" lon="9.306736">
        <ele>1036.387</ele>
        <time>2023-05-10T20:26:59Z</time>
      </trkpt>
      <trkpt lat="46.818940" lon="9.306817">
        <ele>1035.479</ele>
        <time>2023-05-10T20:27:39Z</time>
      </trkpt>
      <trkpt lat="46.819027" lon="9.306772">
        <ele>1033.390</ele>
        <time>2023-05-10T20:28:19Z</time>
      </trkpt>
      <trkpt lat="46.819068" lon="9.306106">
        <ele>1036.999</ele>
        <time>2023-05-10T20:28:59Z</time>
      </trkpt>
      <trkpt lat="46.819176" lon="9.305875">
        <ele>1036.563</ele>
        <time>2023-05-10T20:29:39Z</time>
      </trkpt>
      <trkpt lat="46.819439" lon="9.305942">
        <ele>1035.866</ele>
        <time>2023-05-10T20:30:19Z</time>
      </trkpt>
      <trkpt lat="46.819636" lon="9.306144">
        <ele>1036.726</ele>
        <time>2023-05-10T20:30:59Z</time>
      </trkpt>
      <trkpt lat="46.819854" lon="9.305990">
        <ele>1035.816</ele>
        <time>2023-05-10T20:31:39Z</time>
      </trkpt>
      <trkpt lat="46.819935" lon="9.305602">
        <ele>1038.020</ele>
        <time>2023-05-10T20:32:19Z</time>
      </trkpt>
      <trkpt lat="46.819929" lon="9.305321">
        <ele>1038.141</ele>
        <time>2023-05-10T20:32:59Z</time>
      </trkpt>
      <trkpt lat="46.819869" lon="9.305058">
        <ele>1039.381</ele>
        <time>2023-05-10T20:33:39Z</time>
      </trkpt>
      <trkpt lat="46.819827" lon="9.304814">
        <ele>1040.809</ele>
        <time>2023-05-10T20:34:19Z</time>
      </trkpt>
      <trkpt lat="46.819824" lon="9.304160">
        <ele>1042.809</ele>
        <time>2023-05-10T20:34:59Z</time>
      </trkpt>
      <trkpt lat="46.819757" lon="9.303909">
        <ele>1045.285</ele>
        <time>2023-05-10T20:35:39Z</time>
      </trkpt>
      <trkpt lat="46.819713" lon="9.303690">
        <ele>1047.127</ele>
        <time>2023-05-10T20:36:19Z</time>
      </trkpt>
      <trkpt lat="46.819880" lon="9.303491">
        <ele>1044.828</ele>
        <time>2023-05-10T20:36:59Z</time>
      </trkpt>
      <trkpt lat="46.820170" lon="9.303555">
        <ele>1044.817</ele>
        <time>2023-05-10T20:37:39Z</time>
      </trkpt>
      <trkpt lat="46.820460" lon="9.303547">
        <ele>1046.911</ele>
        <time>2023-05-10T20:38:19Z</time>
      </trkpt>
      <trkpt lat="46.821028" lon="9.303427">
        <ele>1046.084</ele>
        <time>2023-05-10T20:38:59Z</time>
      </trkpt>
      <trkpt lat="46.821324" lon="9.303263">
        <ele>1048.744</ele>
        <time>2023-05-10T20:39:39Z</time>
      </trkpt>
      <trkpt lat="46.821551" lon="9.302947">
        <ele>1052.974</ele>
        <time>2023-05-10T20:40:19Z</time>
      </trkpt>
      <trkpt lat="46.821815" lon="9.302881">
        <ele>1053.688</ele>
        <time>2023-05-10T20:40:59Z</time>
      </trkpt>
      <trkpt lat="46.822119" lon="9.302536">
        <ele>1057.717</ele>
        <time>2023-05-10T20:41:39Z</time>
      </trkpt>
      <trkpt lat="46.822166" lon="9.302232">
        <ele>1056.187</ele>
        <time>2023-05-10T20:42:19Z</time>
      </trkpt>
      <trkpt lat="46.822268" lon="9.302054">
        <ele>1054.015</ele>
        <time>2023-05-10T20:42:59Z</time>
      </trkpt>
      <trkpt lat="46.822338" lon="9.301978">
        <ele>1053.209</ele>
        <time>2023-05-10T20:43:39Z</time>
      </trkpt>
      <trkpt lat="46.822437" lon="9.301753">
        <ele>1051.832</ele>
        <time>2023-05-10T20:44:19Z</time>
      </trkpt>
      <trkpt lat="46.822548" lon="9.301425">
        <ele>1051.324</ele>
        <time>2023-05-10T20:44:59Z</time>
      </trkpt>
      <trkpt lat="46.822688" lon="9.301230">
        <ele>1052.655</ele>
        <time>2023-05-10T20:45:39Z</time>
      </trkpt>
      <trkpt lat="46.822762" lon="9.301101">
        <ele>1053.864</ele>
        <time>2023-05-10T20:46:19Z</time>
      </trkpt>
      <trkpt lat="46.822776" lon="9.300769">
        <ele>1054.048</ele>
        <time>2023-05-10T20:46:59Z</time>
      </trkpt>
      <trkpt lat="46.822991" lon="9.300407">
        <ele>1057.761</ele>
        <time>2023-05-10T20:47:39Z</time>
      </trkpt>
      <trkpt lat="46.823188" lon="9.300182">
        <ele>1058.981</ele>
        <time>2023-05-10T20:48:19Z</time>
      </trkpt>
      <trkpt lat="46.823194" lon="9.300078">
        <ele>1058.411</ele>
        <time>2023-05-10T20:48:59Z</time>
      </trkpt>
      <trkpt lat="46.823301" lon="9.299981">
        <ele>1059.385</ele>
        <time>2023-05-10T20:49:39Z</time>
      </trkpt>
      <trkpt lat="46.823301" lon="9.299757">
        <ele>1056.111</ele>
        <time>2023-05-10T20:50:19Z</time>
      </trkpt>
      <trkpt lat="46.823451" lon="9.299524">
        <ele>1054.421</ele>
        <time>2023-05-10T20:50:59Z</time>
      </trkpt>
      <trkpt lat="46.823440" lon="9.299307">
        <ele>1054.103</ele>
        <time>2023-05-10T20:51:39Z</time>
      </trkpt>
      <trkpt lat="46.823500" lon="9.298922">
        <ele>1057.309</ele>
        <time>2023-05-10T20:52:19Z</time>
      </trkpt>
      <trkpt lat="46.823518" lon="9.298756">
        <ele>1058.842</ele>
        <time>2023-05-10T20:52:59Z</time>
      </trkpt>
      <trkpt lat="46.823477" lon="9.298537">
        <ele>1060.574</ele>
        <time>2023-05-10T20:53:39Z</time>
      </trkpt>
      <trkpt lat="46.823473" lon="9.298094">
        <ele>1063.315</ele>
        <time>2023-05-10T20:54:19Z</time>
      </trkpt>
      <trkpt lat="46.823470" lon="9.297654">
        <ele>1067.584</ele>
        <time>2023-05-10T20:54:59Z</time>
      </trkpt>
      <trkpt lat="46.823410" lon="9.297303">
        <ele>1068.868</ele>
        <time>2023-05-10T20:55:39Z</time>
      </trkpt>
      <trkpt lat="46.823384" lon="9.297121">
        <ele>1069.161</ele>
        <time>2023-05-10T20:56:19Z</time>
      </trkpt>
      <trkpt lat="46.823359" lon="9.296602">
        <ele>1072.011</ele>
        <time>2023-05-10T20:56:59Z</time>
      </trkpt>
      <trkpt lat="46.823229" lon="9.296380">
        <ele>1068.781</ele>
        <time>2023-05-10T20:57:39Z</time>
      </trkpt>
      <trkpt lat="46.823063" lon="9.296245">
        <ele>1065.325</ele>
        <time>2023-05-10T20:58:19Z</time>
      </trkpt>
      <trkpt lat="46.822943" lon="9.295999">
        <ele>1064.021</ele>
        <time>2023-05-10T20:58:59Z</time>
      </trkpt>
      <trkpt lat="46.822914" lon="9.295787">
        <ele>1066.541</ele>
        <time>2023-05-10T20:59:39Z</time>
      </trkpt>
      <trkpt lat="46.822902" lon="9.295298">
        <ele>1070.505</ele>
        <time>2023-05-10T21:00:19Z</time>
      </trkpt>
      <trkpt lat="46.822962" lon="9.294767">
        <ele>1070.009</ele>
        <time>2023-05-10T21:00:59Z</time>
      </trkpt>
      <trkpt lat="46.823086" lon="9.294476">
        <ele>1073.223</ele>
        <time>2023-05-10T21:01:39Z</time>
      </trkpt>
      <trkpt lat="46.823181" lon="9.294198">
        <ele>1072.915</ele>
        <time>2023-05-10T21:02:19Z</time>
      </trkpt>
      <trkpt lat="46.823390" lon="9.293893">
        <ele>1076.196</ele>
        <time>2023-05-10T21:02:59Z</time>
      </trkpt>
      <trkpt lat="46.823472" lon="9.293577">
        <ele>1075.815</ele>
        <time>2023-05-10T21:03:39Z</time>
      </trkpt>
      <trkpt lat="46.823635" lon="9.293529">
        <ele>1080.549</ele>
        <time>2023-05-10T21:04:19Z</time>
      </trkpt>
      <trkpt lat="46.823832" lon="9.293564">
        <ele>1084.582</ele>
        <time>2023-05-10T21:04:59Z</time>
      </trkpt>
      <trkpt lat="46.823914" lon="9.293471">
        <ele>1085.542</ele>
        <time>2023-05-10T21:05:39Z</time>
      </trkpt>
      <trkpt lat="46.823972" lon="9.293290">
        <ele>1085.522</ele>
        <time>2023-05-10T21:06:19Z</time>
      </trkpt>
      <trkpt lat="46.823929" lon="9.292980">
        <ele>1082.396</ele>
        <time>2023-05-10T21:06:59Z</time>
      </trkpt>
      <trkpt lat="46.824010" lon="9.292815">
        <ele>1082.594</ele>
        <time>2023-05-10T21:07:39Z</time>
      </trkpt>
      <trkpt lat="46.824264" lon="9.292329">
        <ele>1084.757</ele>
        <time>2023-05-10T21:08:19Z</time>
      </trkpt>
      <trkpt lat="46.824344" lon="9.292109">
        <ele>1085.622</ele>
        <time>2023-05-10T21:08:59Z</time>
      </trkpt>
      <trkpt lat="46.824400" lon="9.291810">
        <ele>1084.209</ele>
        <time>2023-05-10T21:09:39Z</time>
      </trkpt>
      <trkpt lat="46.824488" lon="9.291718">
        <ele>1085.370</ele>
        <time>2023-05-10T21:10:19Z</time>
      </trkpt>
      <trkpt lat="46.824634" lon="9.291685">
        <ele>1088.352</ele>
        <time>2023-05-10T21:10:59Z</time>
      </trkpt>
      <trkpt lat="46.824743" lon="9.291621">
        <ele>1090.453</ele>
        <time>2023-05-10T21:11:39Z</time>
      </trkpt>
      <trkpt lat="46.824902" lon="9.291239">
        <ele>1094.322</ele>
        <time>2023-05-10T21:12:19Z</time>
      </trkpt>
      <trkpt lat="46.824950" lon="9.291008">
        <ele>1095.096</ele>
        <time>2023-05-10T21:12:59Z</time>
      </trkpt>
      <trkpt lat="46.825011" lon="9.290669">
        <ele>1095.169</ele>
        <time>2023-05-10T21:13:39Z</time>
      </trkpt>
      <trkpt lat="46.825191" lon="9.290418">
        <ele>1097.329</ele>
        <time>2023-05-10T21:14:19Z</time>
      </trkpt>
    </trkseg>
  </trk></gpx>